createdAt,value
2019-05-05T00:00:59.119Z,90.70
2019-05-05T00:01:59.300Z,90.70
2019-05-05T00:02:59.929Z,91.02
2019-05-05T00:03:59.700Z,90.44
2019-05-05T00:04:59.841Z,91.20
2019-05-05T00:05:59.977Z,91.16
2019-05-05T00:07:00.099Z,90.64
2019-05-05T00:08:00.264Z,91.06
2019-05-05T00:09:00.436Z,91.16
2019-05-05T00:10:00.596Z,91.89
2019-05-05T00:11:00.740Z,91.16
2019-05-05T00:12:01.448Z,91.10
2019-05-05T00:13:01.067Z,91.27
2019-05-05T00:14:01.271Z,91.41
2019-05-05T00:15:01.432Z,91.62
2019-05-05T00:16:01.587Z,92.35
2019-05-05T00:17:02.415Z,91.93
2019-05-05T00:18:01.932Z,92.31
2019-05-05T00:19:02.095Z,91.06
2019-05-05T00:20:02.425Z,90.89
2019-05-05T00:21:04.557Z,90.68
2019-05-05T00:22:04.505Z,90.79
2019-05-05T00:23:02.833Z,90.89
2019-05-05T00:24:04.654Z,91.10
2019-05-05T00:25:05.016Z,91.20
2019-05-05T00:26:04.360Z,91.10
2019-05-05T00:27:04.514Z,92.40
2019-05-05T00:28:05.057Z,91.14
2019-05-05T00:29:05.419Z,91.50
2019-05-05T00:30:05.417Z,92.18
2019-05-05T00:31:04.699Z,92.03
2019-05-05T00:32:05.269Z,90.79
2019-05-05T00:33:05.581Z,90.58
2019-05-05T00:34:05.521Z,90.31
2019-05-05T00:35:04.784Z,90.72
2019-05-05T00:36:07.726Z,91.46
2019-05-05T00:37:06.106Z,91.46
2019-05-05T00:38:05.348Z,91.66
2019-05-05T00:39:05.506Z,91.66
2019-05-05T00:40:05.660Z,91.14
2019-05-05T00:41:05.821Z,91.87
2019-05-05T00:42:05.983Z,91.97
2019-05-05T00:43:06.424Z,91.97
2019-05-05T00:44:06.910Z,91.25
2019-05-05T00:45:06.532Z,92.29
2019-05-05T00:46:06.666Z,91.35
2019-05-05T00:47:06.808Z,90.97
2019-05-05T00:48:06.985Z,91.18
2019-05-05T00:49:07.125Z,90.87
2019-05-05T00:50:07.288Z,92.33
2019-05-05T00:51:07.416Z,91.91
2019-05-05T00:52:07.588Z,92.44
2019-05-05T00:53:07.734Z,91.91
2019-05-05T00:54:07.858Z,91.81
2019-05-05T00:55:08.916Z,91.18
2019-05-05T00:56:08.921Z,91.39
2019-05-05T00:57:08.313Z,92.16
2019-05-05T00:58:08.434Z,92.27
2019-05-05T00:59:09.693Z,92.65
2019-05-05T01:00:08.919Z,93.00
2019-05-05T01:01:09.065Z,93.52
2019-05-05T01:02:09.238Z,93.48
2019-05-05T01:03:09.403Z,93.06
2019-05-05T01:04:10.415Z,93.16
2019-05-05T01:05:09.785Z,93.37
2019-05-05T01:06:09.965Z,93.48
2019-05-05T01:07:10.139Z,93.16
2019-05-05T01:08:10.314Z,92.08
2019-05-05T01:09:10.920Z,92.40
2019-05-05T01:10:10.691Z,91.97
2019-05-05T01:11:10.877Z,92.18
2019-05-05T01:12:25.921Z,91.41
2019-05-05T01:13:11.278Z,91.25
2019-05-05T01:14:11.427Z,90.93
2019-05-05T01:15:11.580Z,91.10
2019-05-05T01:16:12.421Z,90.58
2019-05-05T01:17:11.945Z,89.60
2019-05-05T01:18:12.121Z,87.62
2019-05-05T01:19:12.283Z,88.04
2019-05-05T01:20:14.640Z,87.68
2019-05-05T01:21:15.050Z,87.16
2019-05-05T01:22:14.445Z,86.85
2019-05-05T01:23:14.911Z,87.37
2019-05-05T01:24:14.420Z,86.71
2019-05-05T01:25:14.801Z,86.22
2019-05-05T01:26:14.373Z,85.81
2019-05-05T01:27:14.844Z,86.65
2019-05-05T01:28:14.915Z,87.37
2019-05-05T01:29:14.690Z,87.93
2019-05-05T01:30:15.280Z,88.14
2019-05-05T01:31:14.703Z,87.83
2019-05-05T01:32:15.649Z,88.04
2019-05-05T01:33:14.793Z,88.45
2019-05-05T01:34:15.250Z,89.70
2019-05-05T01:35:16.230Z,89.22
2019-05-05T01:36:15.400Z,89.29
2019-05-05T01:37:15.602Z,89.32
2019-05-05T01:38:15.796Z,89.75
2019-05-05T01:39:16.427Z,89.32
2019-05-05T01:40:16.212Z,89.54
2019-05-05T01:41:16.384Z,89.32
2019-05-05T01:42:16.577Z,89.32
2019-05-05T01:43:16.727Z,89.43
2019-05-05T01:44:16.929Z,88.60
2019-05-05T01:45:17.079Z,88.45
2019-05-05T01:46:17.223Z,87.93
2019-05-05T01:47:17.377Z,87.62
2019-05-05T01:48:17.539Z,87.83
2019-05-05T01:49:17.712Z,87.73
2019-05-05T01:50:21.195Z,87.16
2019-05-05T01:51:19.019Z,86.81
2019-05-05T01:52:18.920Z,85.39
2019-05-05T01:53:18.297Z,85.91
2019-05-05T01:54:18.470Z,86.16
2019-05-05T01:55:18.925Z,86.47
2019-05-05T01:56:18.930Z,86.79
2019-05-05T01:57:18.954Z,86.16
2019-05-05T01:58:19.921Z,86.47
2019-05-05T01:59:19.306Z,87.30
2019-05-05T02:00:19.461Z,87.41
2019-05-05T02:01:19.680Z,87.93
2019-05-05T02:02:19.848Z,87.66
2019-05-05T02:03:20.010Z,87.87
2019-05-05T02:04:20.162Z,87.41
2019-05-05T02:05:20.311Z,87.20
2019-05-05T02:06:20.939Z,87.30
2019-05-05T02:07:20.587Z,87.62
2019-05-05T02:08:20.738Z,87.62
2019-05-05T02:09:20.911Z,87.04
2019-05-05T02:10:21.105Z,87.55
2019-05-05T02:11:21.269Z,87.45
2019-05-05T02:12:21.420Z,87.55
2019-05-05T02:13:21.594Z,88.70
2019-05-05T02:14:21.758Z,87.55
2019-05-05T02:15:21.936Z,87.41
2019-05-05T02:16:22.112Z,87.66
2019-05-05T02:17:24.198Z,87.45
2019-05-05T02:18:22.540Z,86.93
2019-05-05T02:19:24.758Z,87.24
2019-05-05T02:20:29.429Z,86.93
2019-05-05T02:21:25.054Z,86.20
2019-05-05T02:22:25.206Z,85.89
2019-05-05T02:23:24.617Z,86.16
2019-05-05T02:24:25.273Z,86.79
2019-05-05T02:25:25.086Z,86.51
2019-05-05T02:26:24.913Z,87.45
2019-05-05T02:27:25.324Z,85.85
2019-05-05T02:28:25.203Z,86.58
2019-05-05T02:29:24.793Z,85.33
2019-05-05T02:30:26.702Z,86.68
2019-05-05T02:31:25.923Z,86.06
2019-05-05T02:32:25.620Z,85.64
2019-05-05T02:33:26.300Z,86.10
2019-05-05T02:34:26.130Z,86.41
2019-05-05T02:35:25.844Z,86.68
2019-05-05T02:36:26.474Z,85.53
2019-05-05T02:37:26.417Z,86.61
2019-05-05T02:38:26.300Z,86.20
2019-05-05T02:39:26.966Z,87.35
2019-05-05T02:40:26.111Z,86.99
2019-05-05T02:41:26.349Z,87.45
2019-05-05T02:42:26.439Z,87.35
2019-05-05T02:43:26.648Z,87.14
2019-05-05T02:44:26.834Z,87.49
2019-05-05T02:45:27.036Z,88.08
2019-05-05T02:46:27.260Z,87.76
2019-05-05T02:47:27.494Z,88.22
2019-05-05T02:48:27.693Z,88.01
2019-05-05T02:49:27.879Z,88.22
2019-05-05T02:50:28.052Z,88.43
2019-05-05T02:51:28.247Z,87.91
2019-05-05T02:52:28.476Z,88.99
2019-05-05T02:53:29.414Z,88.43
2019-05-05T02:54:28.852Z,88.85
2019-05-05T02:55:31.983Z,87.55
2019-05-05T02:56:29.197Z,87.45
2019-05-05T02:57:29.426Z,87.24
2019-05-05T02:58:29.587Z,87.24
2019-05-05T02:59:29.734Z,87.76
2019-05-05T03:00:29.900Z,87.24
2019-05-05T03:01:30.046Z,86.58
2019-05-05T03:02:30.213Z,86.06
2019-05-05T03:03:30.923Z,85.81
2019-05-05T03:04:30.588Z,85.85
2019-05-05T03:05:30.724Z,85.60
2019-05-05T03:06:31.897Z,85.71
2019-05-05T03:07:31.918Z,85.39
2019-05-05T03:08:31.193Z,85.50
2019-05-05T03:09:31.350Z,84.52
2019-05-05T03:10:31.499Z,84.21
2019-05-05T03:11:31.623Z,83.96
2019-05-05T03:12:31.781Z,84.00
2019-05-05T03:13:33.707Z,84.17
2019-05-05T03:14:34.012Z,84.06
2019-05-05T03:15:33.664Z,83.80
2019-05-05T03:16:34.106Z,83.86
2019-05-05T03:17:34.144Z,84.11
2019-05-05T03:18:33.996Z,84.52
2019-05-05T03:19:33.924Z,84.63
2019-05-05T03:20:34.413Z,85.08
2019-05-05T03:21:34.422Z,85.60
2019-05-05T03:22:34.133Z,86.12
2019-05-05T03:23:34.881Z,85.81
2019-05-05T03:24:34.247Z,85.25
2019-05-05T03:25:35.169Z,84.21
2019-05-05T03:26:34.324Z,84.69
2019-05-05T03:27:35.414Z,83.44
2019-05-05T03:28:34.669Z,83.20
2019-05-05T03:29:34.851Z,83.54
2019-05-05T03:30:35.917Z,82.68
2019-05-05T03:31:35.455Z,83.61
2019-05-05T03:32:36.399Z,83.61
2019-05-05T03:33:35.539Z,83.09
2019-05-05T03:34:35.930Z,82.78
2019-05-05T03:35:35.821Z,83.16
2019-05-05T03:36:36.982Z,82.74
2019-05-05T03:37:36.160Z,83.51
2019-05-05T03:38:36.315Z,83.92
2019-05-05T03:39:36.501Z,83.96
2019-05-05T03:40:36.702Z,84.06
2019-05-05T03:41:36.872Z,85.21
2019-05-05T03:42:37.051Z,84.86
2019-05-05T03:43:37.234Z,84.75
2019-05-05T03:44:37.428Z,83.89
2019-05-05T03:45:37.601Z,83.78
2019-05-05T03:46:37.755Z,83.68
2019-05-05T03:47:37.912Z,83.47
2019-05-05T03:48:38.084Z,83.37
2019-05-05T03:49:38.291Z,83.58
2019-05-05T03:50:38.482Z,83.89
2019-05-05T03:51:38.612Z,83.58
2019-05-05T03:52:39.423Z,83.89
2019-05-05T03:53:38.944Z,83.99
2019-05-05T03:54:39.100Z,83.89
2019-05-05T03:55:39.425Z,84.13
2019-05-05T03:57:24.471Z,84.61
2019-05-05T03:57:39.633Z,84.20
2019-05-05T03:58:39.773Z,83.89
2019-05-05T03:59:39.916Z,85.28
2019-05-05T04:00:40.115Z,85.90
2019-05-05T04:01:40.263Z,85.13
2019-05-05T04:02:40.420Z,86.52
2019-05-05T04:03:40.581Z,85.55
2019-05-05T04:04:40.733Z,86.27
2019-05-05T04:05:40.913Z,85.65
2019-05-05T04:06:41.062Z,86.73
2019-05-05T04:07:41.217Z,87.01
2019-05-05T04:08:41.371Z,87.01
2019-05-05T04:09:43.757Z,86.80
2019-05-05T04:10:41.706Z,86.55
2019-05-05T04:11:41.824Z,86.55
2019-05-05T04:12:43.520Z,86.13
2019-05-05T04:13:43.768Z,86.65
2019-05-05T04:14:44.053Z,85.61
2019-05-05T04:15:44.185Z,86.34
2019-05-05T04:16:43.560Z,86.55
2019-05-05T04:17:44.414Z,85.72
2019-05-05T04:18:44.214Z,84.84
2019-05-05T04:19:43.654Z,85.16
2019-05-05T04:20:44.593Z,84.12
2019-05-05T04:21:44.856Z,84.33
2019-05-05T04:22:44.964Z,83.46
2019-05-05T04:23:44.326Z,82.73
2019-05-05T04:24:45.915Z,83.11
2019-05-05T04:25:44.490Z,83.04
2019-05-05T04:26:44.646Z,83.56
2019-05-05T04:27:44.809Z,83.70
2019-05-05T04:28:44.914Z,84.68
2019-05-05T04:29:45.915Z,86.38
2019-05-05T04:30:45.282Z,86.07
2019-05-05T04:31:45.429Z,86.27
2019-05-05T04:32:45.920Z,85.96
2019-05-05T04:33:45.811Z,86.27
2019-05-05T04:34:45.937Z,87.01
2019-05-05T04:35:46.913Z,87.32
2019-05-05T04:36:46.922Z,86.69
2019-05-05T04:37:46.929Z,86.49
2019-05-05T04:38:47.411Z,85.86
2019-05-05T04:39:46.773Z,86.03
2019-05-05T04:40:46.916Z,85.93
2019-05-05T04:41:47.911Z,85.72
2019-05-05T04:42:47.311Z,84.89
2019-05-05T04:43:47.439Z,85.20
2019-05-05T04:44:47.574Z,84.33
2019-05-05T04:45:47.733Z,84.60
2019-05-05T04:46:47.879Z,84.39
2019-05-05T04:47:48.929Z,84.05
2019-05-05T04:48:48.314Z,81.93
2019-05-05T04:49:48.454Z,80.71
2019-05-05T04:50:48.557Z,79.78
2019-05-05T04:51:50.423Z,79.40
2019-05-05T04:52:49.916Z,77.95
2019-05-05T04:53:49.428Z,78.02
2019-05-05T04:54:49.317Z,78.99
2019-05-05T04:55:49.468Z,79.02
2019-05-05T04:56:49.568Z,78.19
2019-05-05T04:57:49.690Z,77.98
2019-05-05T04:58:49.831Z,77.88
2019-05-05T04:59:50.920Z,77.29
2019-05-05T05:00:50.160Z,77.33
2019-05-05T05:01:50.264Z,78.05
2019-05-05T05:02:50.499Z,77.50
2019-05-05T05:03:50.603Z,77.95
2019-05-05T05:04:50.748Z,78.16
2019-05-05T05:05:50.842Z,77.22
2019-05-05T05:06:51.081Z,77.33
2019-05-05T05:07:51.241Z,78.05
2019-05-05T05:08:53.504Z,77.84
2019-05-05T05:09:51.575Z,78.57
2019-05-05T05:10:51.714Z,79.19
2019-05-05T05:11:51.863Z,78.05
2019-05-05T05:12:53.887Z,78.99
2019-05-05T05:13:54.371Z,79.19
2019-05-05T05:14:54.700Z,77.84
2019-05-05T05:15:54.065Z,77.95
2019-05-05T05:16:54.205Z,78.05
2019-05-05T05:17:53.875Z,78.22
2019-05-05T05:18:53.781Z,79.05
2019-05-05T05:19:54.358Z,78.74
2019-05-05T05:20:54.933Z,79.57
2019-05-05T05:22:01.721Z,78.12
2019-05-05T05:22:55.749Z,78.95
2019-05-05T05:23:54.435Z,78.74
2019-05-05T05:24:54.270Z,78.74
2019-05-05T05:25:55.322Z,78.74
2019-05-05T05:26:55.545Z,78.02
2019-05-05T05:27:55.653Z,77.60
2019-05-05T05:28:54.809Z,76.95
2019-05-05T05:29:54.950Z,77.56
2019-05-05T05:30:55.109Z,76.09
2019-05-05T05:31:55.252Z,76.91
2019-05-05T05:32:55.441Z,77.84
2019-05-05T05:33:55.596Z,76.70
2019-05-05T05:34:55.761Z,76.60
2019-05-05T05:35:55.886Z,75.78
2019-05-05T05:36:56.045Z,75.12
2019-05-05T05:37:57.729Z,75.43
2019-05-05T05:38:57.911Z,76.56
2019-05-05T05:39:56.522Z,76.46
2019-05-05T05:40:57.419Z,75.63
2019-05-05T05:41:56.800Z,74.60
2019-05-05T05:42:56.981Z,76.12
2019-05-05T05:43:57.159Z,75.49
2019-05-05T05:44:57.373Z,75.95
2019-05-05T05:45:57.928Z,76.36
2019-05-05T05:46:57.705Z,76.39
2019-05-05T05:47:57.847Z,76.81
2019-05-05T05:48:57.993Z,77.53
2019-05-05T05:49:58.153Z,76.91
2019-05-05T05:50:58.271Z,77.84
2019-05-05T05:52:11.662Z,78.15
2019-05-05T05:52:59.648Z,77.84
2019-05-05T05:53:58.873Z,78.67
2019-05-05T05:54:59.041Z,77.53
2019-05-05T05:55:59.168Z,78.05
2019-05-05T05:56:59.317Z,77.43
2019-05-05T05:57:59.449Z,76.87
2019-05-05T05:59:00.416Z,77.19
2019-05-05T05:59:59.785Z,77.81
2019-05-05T06:00:59.934Z,77.29
2019-05-05T06:02:09.727Z,77.29
2019-05-05T06:03:03.965Z,78.98
2019-05-05T06:04:00.928Z,77.74
2019-05-05T06:05:00.555Z,77.84
2019-05-05T06:06:00.937Z,77.94
2019-05-05T06:07:00.884Z,78.98
2019-05-05T06:08:01.017Z,77.84
2019-05-05T06:09:01.175Z,78.88
2019-05-05T06:10:03.766Z,80.43
2019-05-05T06:11:01.480Z,77.94
2019-05-05T06:12:03.445Z,77.50
2019-05-05T06:13:03.903Z,77.70
2019-05-05T06:14:03.959Z,76.77
2019-05-05T06:15:03.919Z,76.87
2019-05-05T06:16:04.286Z,76.87
2019-05-05T06:17:04.271Z,76.22
2019-05-05T06:18:04.553Z,76.26
2019-05-05T06:19:03.696Z,76.98
2019-05-05T06:20:04.168Z,76.87
2019-05-05T06:21:04.615Z,76.73
2019-05-05T06:22:04.420Z,75.57
2019-05-05T06:23:04.639Z,75.87
2019-05-05T06:24:04.508Z,75.57
2019-05-05T06:25:06.641Z,74.60
2019-05-05T06:26:06.744Z,75.87
2019-05-05T06:27:05.389Z,75.67
2019-05-05T06:28:04.601Z,76.12
2019-05-05T06:29:05.425Z,76.43
2019-05-05T06:30:04.916Z,77.46
2019-05-05T06:31:05.144Z,77.19
2019-05-05T06:32:05.360Z,78.28
2019-05-05T06:33:05.519Z,77.81
2019-05-05T06:34:05.675Z,78.15
2019-05-05T06:35:05.827Z,80.22
2019-05-05T06:36:05.980Z,80.18
2019-05-05T06:37:06.172Z,78.88
2019-05-05T06:38:06.327Z,77.81
2019-05-05T06:39:06.477Z,76.94
2019-05-05T06:40:06.617Z,76.70
2019-05-05T06:41:06.766Z,75.22
2019-05-05T06:42:06.916Z,75.01
2019-05-05T06:43:07.087Z,76.77
2019-05-05T06:44:07.246Z,76.87
2019-05-05T06:45:07.372Z,77.94
2019-05-05T06:46:07.494Z,78.87
2019-05-05T06:47:07.638Z,78.66
2019-05-05T06:48:07.820Z,78.70
2019-05-05T06:49:07.955Z,77.84
2019-05-05T06:50:08.118Z,79.18
2019-05-05T06:51:08.272Z,77.01
2019-05-05T06:52:08.426Z,77.84
2019-05-05T06:53:08.605Z,78.39
2019-05-05T06:54:08.748Z,77.98
2019-05-05T06:55:08.912Z,79.42
2019-05-05T06:56:09.093Z,80.80
2019-05-05T06:57:09.225Z,80.60
2019-05-05T06:58:09.357Z,80.39
2019-05-05T06:59:09.934Z,79.66
2019-05-05T07:00:09.701Z,79.97
2019-05-05T07:01:09.840Z,78.91
2019-05-05T07:02:10.930Z,78.84
2019-05-05T07:03:10.175Z,80.66
2019-05-05T07:04:10.371Z,80.87
2019-05-05T07:05:10.567Z,79.15
2019-05-05T07:06:10.721Z,80.97
2019-05-05T07:07:11.884Z,82.42
2019-05-05T07:08:11.109Z,79.69
2019-05-05T07:09:11.266Z,79.55
2019-05-05T07:10:11.481Z,78.63
2019-05-05T07:11:11.703Z,78.63
2019-05-05T07:12:13.840Z,78.73
2019-05-05T07:13:14.026Z,78.42
2019-05-05T07:14:14.269Z,76.42
2019-05-05T07:15:14.544Z,76.63
2019-05-05T07:16:15.008Z,75.87
2019-05-05T07:17:14.103Z,77.22
2019-05-05T07:18:14.347Z,77.22
2019-05-05T07:19:14.678Z,77.31
2019-05-05T07:20:14.186Z,77.76
2019-05-05T07:21:14.231Z,78.59
2019-05-05T07:22:17.591Z,78.83
2019-05-05T07:23:15.431Z,77.32
2019-05-05T07:24:14.546Z,79.01
2019-05-05T07:25:15.108Z,79.42
2019-05-05T07:26:14.578Z,78.94
2019-05-05T07:27:15.462Z,80.46
2019-05-05T07:28:14.840Z,80.83
2019-05-05T07:29:18.104Z,80.52
2019-05-05T07:30:15.905Z,80.32
2019-05-05T07:31:15.055Z,80.42
2019-05-05T07:32:15.257Z,80.48
2019-05-05T07:33:15.441Z,80.18
2019-05-05T07:34:16.432Z,80.21
2019-05-05T07:35:15.828Z,80.32
2019-05-05T07:36:16.958Z,78.66
2019-05-05T07:37:16.950Z,80.52
2019-05-05T07:38:17.431Z,80.00
2019-05-05T07:39:16.703Z,82.28
2019-05-05T07:40:17.431Z,81.66
2019-05-05T07:41:17.098Z,80.83
2019-05-05T07:42:17.269Z,81.04
2019-05-05T07:43:17.436Z,80.90
2019-05-05T07:44:26.650Z,80.28
2019-05-05T07:45:23.095Z,80.48
2019-05-05T07:46:19.924Z,80.69
2019-05-05T07:47:18.034Z,80.21
2019-05-05T07:48:18.941Z,80.73
2019-05-05T07:49:18.428Z,80.62
2019-05-05T07:50:28.435Z,80.79
2019-05-05T07:51:20.728Z,80.93
2019-05-05T07:52:19.933Z,80.35
2019-05-05T07:53:19.183Z,81.28
2019-05-05T07:54:19.351Z,82.62
2019-05-05T07:55:19.507Z,82.73
2019-05-05T07:56:19.946Z,82.73
2019-05-05T07:57:20.455Z,83.28
2019-05-05T07:58:20.088Z,82.87
2019-05-05T07:59:20.462Z,84.21
2019-05-05T08:00:20.376Z,84.52
2019-05-05T08:01:20.534Z,84.11
2019-05-05T08:02:20.677Z,83.70
2019-05-05T08:03:20.803Z,83.70
2019-05-05T08:04:21.444Z,85.00
2019-05-05T08:05:21.079Z,84.17
2019-05-05T08:06:21.231Z,84.28
2019-05-05T08:07:21.441Z,83.83
2019-05-05T08:08:21.593Z,83.27
2019-05-05T08:09:22.698Z,82.30
2019-05-05T08:10:24.141Z,81.89
2019-05-05T08:11:23.872Z,80.82
2019-05-05T08:12:24.975Z,80.30
2019-05-05T08:13:24.323Z,80.20
2019-05-05T08:14:24.525Z,77.83
2019-05-05T08:15:24.936Z,80.37
2019-05-05T08:16:24.264Z,80.47
2019-05-05T08:17:24.478Z,80.20
2019-05-05T08:18:24.311Z,80.20
2019-05-05T08:19:24.778Z,80.41
2019-05-05T08:20:23.914Z,79.96
2019-05-05T08:21:25.082Z,78.97
2019-05-05T08:22:24.928Z,79.27
2019-05-05T08:23:30.276Z,80.30
2019-05-05T08:24:26.595Z,80.34
2019-05-05T08:25:36.174Z,81.23
2019-05-05T08:26:26.038Z,81.68
2019-05-05T08:27:25.154Z,81.27
2019-05-05T08:28:25.310Z,80.69
2019-05-05T08:29:25.474Z,82.30
2019-05-05T08:30:26.437Z,82.51
2019-05-05T08:31:26.433Z,82.92
2019-05-05T08:32:25.984Z,82.51
2019-05-05T08:33:26.152Z,82.47
2019-05-05T08:34:26.324Z,82.54
2019-05-05T08:35:26.490Z,81.16
2019-05-05T08:36:27.437Z,80.40
2019-05-05T08:37:26.811Z,79.03
2019-05-05T08:38:26.992Z,77.48
2019-05-05T08:39:27.226Z,78.61
2019-05-05T08:40:27.379Z,79.95
2019-05-05T08:41:27.588Z,80.26
2019-05-05T08:42:27.779Z,77.45
2019-05-05T08:43:27.963Z,76.86
2019-05-05T08:44:28.458Z,78.34
2019-05-05T08:45:28.388Z,80.19
2019-05-05T08:46:29.439Z,79.37
2019-05-05T08:47:28.710Z,80.30
2019-05-05T08:48:28.891Z,79.58
2019-05-05T08:49:29.451Z,78.96
2019-05-05T08:50:29.237Z,78.51
2019-05-05T08:51:29.408Z,78.30
2019-05-05T08:52:30.449Z,77.89
2019-05-05T08:53:41.508Z,77.51
2019-05-05T08:54:33.798Z,79.16
2019-05-05T08:55:29.976Z,79.27
2019-05-05T08:56:30.140Z,78.44
2019-05-05T08:57:30.942Z,78.65
2019-05-05T08:58:30.496Z,78.34
2019-05-05T08:59:30.649Z,78.86
2019-05-05T09:00:30.957Z,76.83
2019-05-05T09:01:30.957Z,79.20
2019-05-05T09:02:33.188Z,80.23
2019-05-05T09:03:33.678Z,78.69
2019-05-05T09:04:31.371Z,79.44
2019-05-05T09:05:34.151Z,80.13
2019-05-05T09:06:31.742Z,80.13
2019-05-05T09:07:33.654Z,80.30
2019-05-05T09:08:32.091Z,79.75
2019-05-05T09:09:33.502Z,78.30
2019-05-05T09:10:34.341Z,77.24
2019-05-05T09:11:34.437Z,76.56
2019-05-05T09:12:33.901Z,78.89
2019-05-05T09:13:34.120Z,78.99
2019-05-05T09:14:34.639Z,76.59
2019-05-05T09:15:37.511Z,76.07
2019-05-05T09:16:34.437Z,77.78
2019-05-05T09:17:33.779Z,77.17
2019-05-05T09:18:34.825Z,73.81
2019-05-05T09:19:34.447Z,75.80
2019-05-05T09:20:35.158Z,78.06
2019-05-05T09:21:34.659Z,77.38
2019-05-05T09:22:35.487Z,78.68
2019-05-05T09:23:34.792Z,78.41
2019-05-05T09:24:35.776Z,80.47
2019-05-05T09:25:34.963Z,80.51
2019-05-05T09:26:35.182Z,78.14
2019-05-05T09:27:35.365Z,82.25
2019-05-05T09:28:35.560Z,81.05
2019-05-05T09:29:35.757Z,81.84
2019-05-05T09:30:35.949Z,81.84
2019-05-05T09:31:36.175Z,82.21
2019-05-05T09:32:36.355Z,82.93
2019-05-05T09:33:36.540Z,79.91
2019-05-05T09:34:37.481Z,78.06
2019-05-05T09:35:36.881Z,79.36
2019-05-05T09:36:37.121Z,77.78
2019-05-05T09:37:37.274Z,78.27
2019-05-05T09:38:37.474Z,77.92
2019-05-05T09:39:37.686Z,73.98
2019-05-05T09:40:37.874Z,71.42
2019-05-05T09:41:38.074Z,74.87
2019-05-05T09:42:38.249Z,75.28
2019-05-05T09:43:38.435Z,69.67
2019-05-05T09:44:39.444Z,71.48
2019-05-05T09:45:38.718Z,75.73
2019-05-05T09:46:39.681Z,75.15
2019-05-05T09:47:40.026Z,76.97
2019-05-05T09:48:39.144Z,78.57
2019-05-05T09:49:39.314Z,77.10
2019-05-05T09:50:39.492Z,76.04
2019-05-05T09:51:39.707Z,75.59
2019-05-05T09:52:39.872Z,73.16
2019-05-05T09:53:40.038Z,72.75
2019-05-05T09:54:40.213Z,73.85
2019-05-05T09:55:40.942Z,69.17
2019-05-05T09:56:40.603Z,69.40
2019-05-05T09:57:40.795Z,72.55
2019-05-05T09:58:40.983Z,73.85
2019-05-05T09:59:41.174Z,72.92
2019-05-05T10:00:44.018Z,69.24
2019-05-05T10:01:41.531Z,69.82
2019-05-05T10:02:43.943Z,72.48
2019-05-05T10:03:41.994Z,71.12
2019-05-05T10:04:43.938Z,70.88
2019-05-05T10:05:42.276Z,68.93
2019-05-05T10:06:47.114Z,68.32
2019-05-05T10:07:44.131Z,64.67
2019-05-05T10:08:44.663Z,68.11
2019-05-05T10:09:43.814Z,68.79
2019-05-05T10:10:44.386Z,69.85
2019-05-05T10:11:45.004Z,68.23
2019-05-05T10:12:44.702Z,60.97
2019-05-05T10:13:44.651Z,66.25
2019-05-05T10:14:45.003Z,65.31
2019-05-05T10:15:44.897Z,58.19
2019-05-05T10:16:44.015Z,61.47
2019-05-05T10:17:44.182Z,66.89
2019-05-05T10:18:44.834Z,67.57
2019-05-05T10:19:45.600Z,64.04
2019-05-05T10:20:44.770Z,65.07
2019-05-05T10:21:44.938Z,58.69
2019-05-05T10:22:45.133Z,56.35
2019-05-05T10:23:45.307Z,63.44
2019-05-05T10:24:45.462Z,63.37
2019-05-05T10:25:46.627Z,60.66
2019-05-05T10:26:45.742Z,53.52
2019-05-05T10:27:47.783Z,59.28
2019-05-05T10:28:47.102Z,62.92
2019-05-05T10:29:46.369Z,57.34
2019-05-05T10:30:46.526Z,56.88
2019-05-05T10:31:46.667Z,62.68
2019-05-05T10:32:46.907Z,60.52
2019-05-05T10:33:47.046Z,58.09
2019-05-05T10:34:47.285Z,59.50
2019-05-05T10:35:47.975Z,61.35
2019-05-05T10:36:47.605Z,57.17
2019-05-05T10:37:48.456Z,61.90
2019-05-05T10:38:47.955Z,59.26
2019-05-05T10:39:48.153Z,58.39
2019-05-05T10:40:48.500Z,51.89
2019-05-05T10:41:49.565Z,56.15
2019-05-05T10:42:48.678Z,53.54
2019-05-05T10:43:48.799Z,58.02
2019-05-05T10:44:48.939Z,58.81
2019-05-05T10:45:49.098Z,59.55
2019-05-05T10:46:49.263Z,61.77
2019-05-05T10:47:49.950Z,58.34
2019-05-05T10:48:49.542Z,54.31
2019-05-05T10:49:49.684Z,57.53
2019-05-05T10:50:49.820Z,61.43
2019-05-05T10:51:50.024Z,58.27
2019-05-05T10:52:50.156Z,60.28
2019-05-05T10:53:50.305Z,57.27
2019-05-05T10:54:50.443Z,56.96
2019-05-05T10:55:51.459Z,50.66
2019-05-05T10:56:50.865Z,52.08
2019-05-05T10:57:51.054Z,53.75
2019-05-05T10:58:51.267Z,56.10
2019-05-05T10:59:51.455Z,56.18
2019-05-05T11:00:54.368Z,59.80
2019-05-05T11:01:53.800Z,53.26
2019-05-05T11:02:52.047Z,56.35
2019-05-05T11:03:53.225Z,53.54
2019-05-05T11:04:54.475Z,53.57
2019-05-05T11:05:53.829Z,55.36
2019-05-05T11:06:54.658Z,54.59
2019-05-05T11:07:53.799Z,55.13
2019-05-05T11:09:15.068Z,57.48
2019-05-05T11:09:54.298Z,57.02
2019-05-05T11:10:53.416Z,57.89
2019-05-05T11:11:53.611Z,53.13
2019-05-05T11:12:54.461Z,55.05
2019-05-05T11:13:54.346Z,51.70
2019-05-05T11:14:55.962Z,52.65
2019-05-05T11:15:54.963Z,52.19
2019-05-05T11:16:54.727Z,54.72
2019-05-05T11:17:55.688Z,55.87
2019-05-05T11:18:54.889Z,56.15
2019-05-05T11:19:55.048Z,58.17
2019-05-05T11:20:55.962Z,54.08
2019-05-05T11:21:55.349Z,54.97
2019-05-05T11:22:55.544Z,59.14
2019-05-05T11:23:55.695Z,58.29
2019-05-05T11:25:00.740Z,59.04
2019-05-05T11:25:58.083Z,63.40
2019-05-05T11:26:56.970Z,63.40
2019-05-05T11:27:56.460Z,62.88
2019-05-05T11:28:56.613Z,64.65
2019-05-05T11:29:57.485Z,66.88
2019-05-05T11:30:56.986Z,68.86
2019-05-05T11:31:57.119Z,68.10
2019-05-05T11:32:57.280Z,69.19
2019-05-05T11:33:57.448Z,72.06
2019-05-05T11:34:57.618Z,71.04
2019-05-05T11:35:57.774Z,73.91
2019-05-05T11:36:57.911Z,75.42
2019-05-05T11:37:58.093Z,72.61
2019-05-05T11:38:58.255Z,72.99
2019-05-05T11:39:58.381Z,69.57
2019-05-05T11:40:58.652Z,68.76
2019-05-05T11:41:58.798Z,68.04
2019-05-05T11:42:58.988Z,66.19
2019-05-05T11:43:59.123Z,68.32
2019-05-05T11:44:59.297Z,68.69
2019-05-05T11:45:59.968Z,68.73
2019-05-05T11:46:59.592Z,66.21
2019-05-05T11:48:00.474Z,65.16
2019-05-05T11:48:59.961Z,64.62
2019-05-05T11:50:00.136Z,62.20
2019-05-05T11:51:00.280Z,63.19
2019-05-05T11:52:00.430Z,60.13
2019-05-05T11:53:01.477Z,62.27
2019-05-05T11:54:00.731Z,60.97
2019-05-05T11:55:09.630Z,58.55
2019-05-05T11:56:04.207Z,59.39
2019-05-05T11:57:01.335Z,60.93
2019-05-05T11:58:03.578Z,61.54
2019-05-05T11:59:04.051Z,60.80
2019-05-05T12:00:03.870Z,61.69
2019-05-05T12:01:04.049Z,59.95
2019-05-05T12:02:03.787Z,58.32
2019-05-05T12:03:03.847Z,59.21
2019-05-05T12:04:04.058Z,59.82
2019-05-05T12:05:04.538Z,58.80
2019-05-05T12:06:04.122Z,58.39
2019-05-05T12:07:04.218Z,57.34
2019-05-05T12:08:04.119Z,56.63
2019-05-05T12:09:03.361Z,57.34
2019-05-05T12:10:03.559Z,57.34
2019-05-05T12:11:04.579Z,54.77
2019-05-05T12:12:04.912Z,54.85
2019-05-05T12:13:04.160Z,54.13
2019-05-05T12:14:04.218Z,55.74
2019-05-05T12:15:04.989Z,52.07
2019-05-05T12:16:04.842Z,51.76
2019-05-05T12:17:04.744Z,53.85
2019-05-05T12:18:04.907Z,51.72
2019-05-05T12:19:05.980Z,53.02
2019-05-05T12:20:05.240Z,48.66
2019-05-05T12:21:05.511Z,50.31
2019-05-05T12:22:06.472Z,49.52
2019-05-05T12:23:05.719Z,53.19
2019-05-05T12:24:05.897Z,51.46
2019-05-05T12:25:06.984Z,53.57
2019-05-05T12:26:06.267Z,52.15
2019-05-05T12:27:06.979Z,54.46
2019-05-05T12:28:06.588Z,52.98
2019-05-05T12:29:06.731Z,51.34
2019-05-05T12:30:06.869Z,49.40
2019-05-05T12:31:07.057Z,50.01
2019-05-05T12:32:07.207Z,49.48
2019-05-05T12:33:07.976Z,49.87
2019-05-05T12:34:07.582Z,48.24
2019-05-05T12:35:07.713Z,46.39
2019-05-05T12:36:07.845Z,46.74
2019-05-05T12:37:08.493Z,45.21
2019-05-05T12:38:08.088Z,44.18
2019-05-05T12:39:09.244Z,45.90
2019-05-05T12:40:08.361Z,45.86
2019-05-05T12:41:09.475Z,44.34
2019-05-05T12:42:08.736Z,46.01
2019-05-05T12:43:08.903Z,44.51
2019-05-05T12:44:09.050Z,45.72
2019-05-05T12:45:09.195Z,46.41
2019-05-05T12:46:09.352Z,45.98
2019-05-05T12:47:09.535Z,44.87
2019-05-05T12:48:09.997Z,46.64
2019-05-05T12:49:09.823Z,46.94
2019-05-05T12:50:09.982Z,46.09
2019-05-05T12:51:10.135Z,45.98
2019-05-05T12:52:10.307Z,46.19
2019-05-05T12:53:10.492Z,44.24
2019-05-05T12:54:10.661Z,41.94
2019-05-05T12:55:10.810Z,46.55